Time;durP1;ratioP1;P1;durP2;ratioP2;P2;SDS_P1;SDS_P2;PMS_P1;PMS_P2;Temp;Humidity;BMP_temperature;BMP_pressure;BME280_temperature;BME280_humidity;BME280_pressure;Samples;Min_cycle;Max_cycle;Signal;HPM_P1;HPM_P2
2022/11/08 00:03:15;;;;;;;23.20;16.60;;;;;;;9.82;70.50;100505.58;108657;1274;22025;-82
2022/11/08 00:14:06;;;;;;;20.40;15.50;;;;;;;9.74;70.48;100510.33;109051;1274;21939;-83
2022/11/08 00:16:35;;;;;;;17.70;13.50;;;;;;;9.76;70.41;100509.59;108832;1272;22089;-83
2022/11/08 00:19:04;;;;;;;15.60;12.60;;;;;;;9.75;70.29;100513.60;109042;1262;23760;-80
2022/11/08 00:21:34;;;;;;;16.00;12.60;;;;;;;9.75;70.33;100513.77;108903;1271;23133;-82
2022/11/08 00:24:03;;;;;;;15.80;12.40;;;;;;;9.76;70.27;100515.67;108777;1271;21955;-82
2022/11/08 00:26:31;;;;;;;17.40;13.00;;;;;;;9.75;70.13;100516.06;109044;1271;23054;-80
2022/11/08 00:29:01;;;;;;;19.40;13.40;;;;;;;9.70;69.97;100516.19;108880;1271;22323;-80
2022/11/08 00:31:29;;;;;;;17.40;14.50;;;;;;;9.65;69.94;100514.98;108827;1271;22017;-80
2022/11/08 00:33:58;;;;;;;15.60;13.00;;;;;;;9.61;70.15;100513.88;108758;1271;23641;-81
2022/11/08 00:36:27;;;;;;;14.20;12.80;;;;;;;9.60;70.20;100515.12;108834;1271;23649;-81
2022/11/08 00:38:56;;;;;;;16.30;13.40;;;;;;;9.56;70.17;100512.63;109055;1271;23722;-80
2022/11/08 00:41:25;;;;;;;13.90;12.20;;;;;;;9.54;70.28;100516.69;108891;1271;22932;-81
2022/11/08 00:43:54;;;;;;;15.90;13.00;;;;;;;9.55;70.37;100516.48;108918;1271;21924;-81
2022/11/08 00:46:22;;;;;;;15.60;12.20;;;;;;;9.54;70.26;100517.75;109095;1271;22395;-80
2022/11/08 00:48:51;;;;;;;17.40;14.30;;;;;;;9.52;70.11;100515.90;109039;1271;21943;-81
2022/11/08 00:51:20;;;;;;;19.20;14.30;;;;;;;9.49;70.11;100515.80;109014;1271;21972;-81
2022/11/08 00:53:49;;;;;;;19.50;13.70;;;;;;;9.48;70.16;100517.40;108891;1271;21940;-82
2022/11/08 00:56:18;;;;;;;17.30;14.40;;;;;;;9.47;70.20;100521.64;108870;1271;22018;-80
2022/11/08 00:58:47;;;;;;;21.60;14.90;;;;;;;9.45;70.13;100520.09;109057;1271;22794;-84
2022/11/08 01:01:20;;;;;;;18.40;14.80;;;;;;;9.43;70.14;100516.16;108260;1277;22399;-81
2022/11/08 01:03:50;;;;;;;21.30;15.10;;;;;;;9.40;70.11;100514.71;108256;1277;24364;-80
2022/11/08 01:06:21;;;;;;;18.30;14.80;;;;;;;9.36;70.20;100511.34;108664;1277;22218;-80
2022/11/08 01:08:51;;;;;;;18.90;16.60;;;;;;;9.32;70.23;100512.49;108610;1277;21951;-80
2022/11/08 01:11:23;;;;;;;19.00;16.40;;;;;;;9.29;70.20;100510.34;108512;1277;22235;-81
2022/11/08 01:13:56;;;;;;;18.80;16.60;;;;;;;9.25;70.13;100506.46;108670;1278;22289;-80
2022/11/08 01:16:31;;;;;;;24.20;20.80;;;;;;;9.19;70.07;100509.42;108480;1277;21976;-81
2022/11/08 01:19:01;;;;;;;25.40;22.80;;;;;;;9.15;70.20;100508.31;108539;1275;22068;-81
2022/11/08 01:21:30;;;;;;;24.50;20.90;;;;;;;9.13;70.30;100509.42;108988;1274;21929;-81
2022/11/08 01:23:59;;;;;;;25.40;20.50;;;;;;;9.09;70.31;100511.11;108697;1274;23015;-82
2022/11/08 01:26:28;;;;;;;21.00;17.20;;;;;;;9.02;70.27;100507.99;108900;1274;21943;-81
2022/11/08 01:28:58;;;;;;;22.80;19.20;;;;;;;8.94;70.18;100507.19;108794;1274;24515;-82
2022/11/08 01:31:31;;;;;;;20.40;18.20;;;;;;;8.86;70.31;100503.61;108839;1269;21927;-82
2022/11/08 01:34:00;;;;;;;22.20;19.10;;;;;;;8.80;70.49;100502.55;108885;1274;21913;-81
2022/11/08 01:36:29;;;;;;;22.30;18.40;;;;;;;8.77;70.61;100504.36;108751;1274;23672;-80
2022/11/08 01:38:58;;;;;;;23.00;18.20;;;;;;;8.75;70.82;100506.87;108958;1274;22917;-80
2022/11/08 01:41:27;;;;;;;32.60;28.20;;;;;;;8.72;70.81;100507.29;108729;1274;22025;-79
2022/11/08 01:43:58;;;;;;;22.80;20.30;;;;;;;8.67;70.89;100506.91;109153;1272;23614;-82
2022/11/08 01:46:43;;;;;;;24.20;21.60;;;;;;;8.63;71.08;100507.00;109043;1274;21932;-81
2022/11/08 01:49:37;;;;;;;24.60;22.30;;;;;;;8.60;71.26;100503.95;108879;1275;21934;-81
2022/11/08 01:52:38;;;;;;;28.90;25.10;;;;;;;8.59;71.40;100500.34;108928;1273;21957;-81
2022/11/08 01:55:29;;;;;;;31.50;26.60;;;;;;;8.56;71.39;100497.48;109189;1264;23065;-79
2022/11/08 01:58:08;;;;;;;30.40;25.30;;;;;;;8.55;71.55;100498.55;109071;1274;23184;-81
2022/11/08 02:00:38;;;;;;;24.60;21.50;;;;;;;8.57;71.70;100495.02;108657;1277;23088;-79
2022/11/08 02:03:12;;;;;;;24.50;20.50;;;;;;;8.59;71.66;100491.51;108644;1277;21924;-80
2022/11/08 02:05:45;;;;;;;25.90;22.80;;;;;;;8.60;71.73;100488.02;108870;1277;21928;-80
2022/11/08 02:08:41;;;;;;;25.60;21.10;;;;;;;8.64;71.89;100492.23;108607;1280;21987;-79
2022/11/08 02:11:14;;;;;;;24.00;19.50;;;;;;;8.68;71.90;100491.95;108532;1279;21931;-80
2022/11/08 02:13:44;;;;;;;22.70;18.80;;;;;;;8.73;71.95;100488.52;108641;1280;21952;-81
2022/11/08 02:16:15;;;;;;;21.90;17.50;;;;;;;8.75;71.78;100487.05;108583;1281;23705;-81
2022/11/08 02:18:47;;;;;;;20.50;18.30;;;;;;;8.77;71.79;100487.70;108645;1278;23709;-81
2022/11/08 02:21:47;;;;;;;24.10;20.40;;;;;;;8.77;71.60;100489.10;108594;1278;23061;-79
2022/11/08 02:24:16;;;;;;;27.30;24.40;;;;;;;8.72;71.53;100486.11;108489;1279;22017;-80
2022/11/08 02:26:48;;;;;;;25.80;23.10;;;;;;;8.72;71.64;100484.03;108583;1275;22397;-80
2022/11/08 02:29:34;;;;;;;28.50;24.90;;;;;;;8.73;71.51;100483.48;108943;1267;21964;-80
2022/11/08 02:32:05;;;;;;;27.30;24.50;;;;;;;8.72;71.58;100481.43;108808;1275;22094;-79
2022/11/08 02:34:54;;;;;;;25.70;22.30;;;;;;;8.71;71.63;100480.59;108963;1275;23714;-80
2022/11/08 02:37:26;;;;;;;26.80;23.40;;;;;;;8.69;71.60;100480.46;109049;1274;21947;-79
2022/11/08 02:39:55;;;;;;;29.10;26.20;;;;;;;8.67;71.49;100481.05;108710;1274;23763;-80
2022/11/08 02:42:24;;;;;;;30.80;27.70;;;;;;;8.62;71.33;100480.33;109086;1267;21915;-80
2022/11/08 02:44:53;;;;;;;32.90;29.70;;;;;;;8.56;71.44;100480.47;109057;1272;21987;-81
2022/11/08 02:47:24;;;;;;;32.20;29.00;;;;;;;8.52;71.52;100480.08;108833;1274;21942;-80
2022/11/08 02:49:53;;;;;;;31.70;28.60;;;;;;;8.48;71.54;100479.33;108890;1274;23007;-80
2022/11/08 02:52:22;;;;;;;31.80;28.50;;;;;;;8.43;71.59;100483.27;108656;1275;21966;-80
2022/11/08 02:54:50;;;;;;;25.40;19.80;;;;;;;8.37;71.61;100477.33;108613;1276;21939;-80
2022/11/08 02:57:19;;;;;;;22.70;19.90;;;;;;;8.31;71.64;100477.30;108997;1274;23563;-80
2022/11/08 02:59:48;;;;;;;22.70;17.90;;;;;;;8.27;71.80;100479.84;108836;1273;23627;-80
2022/11/08 03:02:17;;;;;;;26.40;20.70;;;;;;;8.21;71.89;100481.02;109123;1273;21922;-80
2022/11/08 03:04:46;;;;;;;21.70;19.40;;;;;;;8.18;72.06;100480.59;108920;1274;21928;-80
2022/11/08 03:07:15;;;;;;;25.20;22.30;;;;;;;8.18;72.13;100481.80;109168;1267;21956;-80
2022/11/08 03:09:51;;;;;;;27.50;20.70;;;;;;;8.20;72.38;100481.23;108928;1272;23021;-80
2022/11/08 03:12:20;;;;;;;21.80;19.50;;;;;;;8.24;72.48;100481.11;109089;1271;22019;-80
2022/11/08 03:14:49;;;;;;;20.40;18.40;;;;;;;8.28;72.38;100484.48;109194;1273;21930;-80
2022/11/08 03:17:18;;;;;;;23.20;20.80;;;;;;;8.32;72.33;100485.94;108922;1273;23594;-80
2022/11/08 03:19:47;;;;;;;26.20;22.00;;;;;;;8.36;72.35;100490.86;108964;1274;23850;-80
2022/11/08 03:22:15;;;;;;;25.40;22.70;;;;;;;8.40;72.33;100494.59;109232;1272;22622;-81
2022/11/08 03:24:44;;;;;;;29.70;26.80;;;;;;;8.43;72.14;100495.22;108990;1274;23667;-80
2022/11/08 03:27:14;;;;;;;32.20;28.70;;;;;;;8.42;72.10;100494.20;109035;1274;21922;-81
2022/11/08 03:29:43;;;;;;;31.00;27.80;;;;;;;8.45;72.27;100494.84;109070;1274;23715;-81
2022/11/08 03:32:13;;;;;;;33.90;30.60;;;;;;;8.48;72.28;100501.17;109080;1274;22730;-80
2022/11/08 03:34:42;;;;;;;39.10;35.50;;;;;;;8.46;71.97;100499.48;109166;1274;21960;-80
2022/11/08 03:37:11;;;;;;;41.90;38.00;;;;;;;8.42;71.92;100500.97;109102;1274;21935;-81
2022/11/08 03:39:39;;;;;;;42.90;38.70;;;;;;;8.40;72.01;100499.77;108963;1269;23049;-81
2022/11/08 03:42:09;;;;;;;47.70;43.20;;;;;;;8.40;72.14;100500.99;109005;1275;22577;-79
2022/11/08 03:44:39;;;;;;;45.70;41.70;;;;;;;8.41;72.09;100505.84;108721;1271;21969;-79
2022/11/08 03:47:08;;;;;;;45.30;41.10;;;;;;;8.40;72.01;100510.04;108975;1271;23850;-80
2022/11/08 03:49:37;;;;;;;45.50;41.50;;;;;;;8.37;72.03;100511.14;109025;1271;23021;-81
2022/11/08 03:52:07;;;;;;;46.70;42.50;;;;;;;8.38;72.21;100513.36;108894;1278;22887;-81
2022/11/08 03:54:35;;;;;;;53.60;48.40;;;;;;;8.41;72.25;100512.44;108858;1278;21906;-81
2022/11/08 03:57:05;;;;;;;55.30;49.90;;;;;;;8.44;72.31;100514.45;108944;1273;23084;-81
2022/11/08 03:59:34;;;;;;;49.20;44.90;;;;;;;8.47;72.13;100514.22;108678;1280;22063;-82
2022/11/08 04:02:03;;;;;;;51.20;46.60;;;;;;;8.45;71.99;100515.30;108678;1280;23067;-81
2022/11/08 04:04:32;;;;;;;50.80;45.80;;;;;;;8.42;71.92;100514.48;108259;1283;21998;-80
2022/11/08 04:07:02;;;;;;;55.40;50.10;;;;;;;8.40;71.95;100514.70;108544;1280;23032;-82
2022/11/08 04:09:31;;;;;;;60.50;54.90;;;;;;;8.37;71.94;100512.54;108550;1280;22096;-82
2022/11/08 04:23:10;;;;;;;38.90;35.20;;;;;;;8.13;72.17;100507.05;108711;1277;24139;-84
2022/11/08 04:25:39;;;;;;;45.00;38.90;;;;;;;8.10;72.29;100509.90;108435;1277;21958;-84
2022/11/08 04:28:08;;;;;;;32.70;29.50;;;;;;;8.07;72.36;100510.17;108712;1277;21975;-81
2022/11/08 04:30:37;;;;;;;36.90;32.70;;;;;;;8.01;72.29;100508.04;108390;1280;23594;-81
2022/11/08 04:33:06;;;;;;;42.20;34.50;;;;;;;7.96;72.27;100506.28;108436;1280;22416;-81
2022/11/08 04:35:35;;;;;;;65.50;49.10;;;;;;;7.93;72.45;100505.84;108888;1277;23604;-81
2022/11/08 04:38:04;;;;;;;42.00;36.00;;;;;;;7.91;72.50;100503.98;108729;1279;21941;-81
2022/11/08 04:40:33;;;;;;;42.90;34.00;;;;;;;7.89;72.62;100504.88;108652;1276;21964;-80
2022/11/08 04:43:02;;;;;;;41.50;31.70;;;;;;;7.88;72.69;100500.56;109121;1274;23080;-81
2022/11/08 04:45:30;;;;;;;28.70;25.50;;;;;;;7.87;72.71;100497.48;109284;1257;21903;-81
2022/11/08 04:47:59;;;;;;;27.30;23.00;;;;;;;7.82;72.74;100496.21;109098;1271;21926;-82
2022/11/08 04:50:29;;;;;;;27.70;23.50;;;;;;;7.84;72.89;100497.39;109146;1272;22033;-81
2022/11/08 04:52:58;;;;;;;28.20;24.80;;;;;;;7.87;72.98;100495.76;108779;1277;23597;-80
2022/11/08 04:55:27;;;;;;;30.30;25.90;;;;;;;7.91;72.98;100494.95;108521;1277;22038;-83
2022/11/08 04:57:57;;;;;;;29.10;26.10;;;;;;;7.94;72.91;100500.27;108735;1277;21942;-82
2022/11/08 05:00:26;;;;;;;32.00;28.50;;;;;;;7.94;72.85;100502.15;108739;1276;21955;-80
2022/11/08 05:02:55;;;;;;;34.00;30.40;;;;;;;7.92;72.83;100498.73;108731;1280;24473;-82
2022/11/08 05:05:24;;;;;;;35.60;29.40;;;;;;;7.89;72.70;100501.41;108734;1280;23622;-82
2022/11/08 05:07:54;;;;;;;61.30;43.60;;;;;;;7.85;72.68;100498.57;108464;1282;21944;-82
2022/11/08 05:10:22;;;;;;;99.70;62.70;;;;;;;7.81;72.74;100499.88;108572;1274;23780;-82
2022/11/08 05:12:55;;;;;;;74.80;52.50;;;;;;;7.77;72.68;100497.56;109147;1259;23587;-82
2022/11/08 05:15:24;;;;;;;56.80;43.70;;;;;;;7.73;72.74;100492.97;108963;1275;23634;-83
2022/11/08 05:17:53;;;;;;;41.60;36.80;;;;;;;7.68;72.63;100489.60;108912;1275;22178;-83
2022/11/08 05:23:25;;;;;;;38.30;34.00;;;;;;;7.58;72.74;100488.63;109024;1271;21922;-81
2022/11/08 05:25:56;;;;;;;39.10;35.20;;;;;;;7.57;72.97;100487.98;109077;1272;22428;-83
2022/11/08 05:28:25;;;;;;;41.60;37.30;;;;;;;7.58;73.13;100487.08;108801;1271;21935;-85
2022/11/08 05:30:55;;;;;;;45.70;41.30;;;;;;;7.59;73.11;100485.84;109007;1272;23031;-84
2022/11/08 05:33:25;;;;;;;43.10;39.00;;;;;;;7.60;73.05;100487.73;108912;1274;23042;-81
2022/11/08 05:35:53;;;;;;;36.50;32.80;;;;;;;7.59;73.02;100488.95;108863;1275;21920;-82
2022/11/08 05:38:22;;;;;;;39.00;35.20;;;;;;;7.58;72.94;100491.41;108868;1277;22793;-81
2022/11/08 05:40:51;;;;;;;188.90;110.10;;;;;;;7.58;73.11;100491.06;108731;1281;22799;-81
2022/11/08 05:43:20;;;;;;;113.60;67.20;;;;;;;7.58;73.07;100492.79;108637;1279;22262;-81
2022/11/08 05:45:49;;;;;;;48.20;40.40;;;;;;;7.56;72.91;100494.58;108565;1280;23653;-80
2022/11/08 05:48:18;;;;;;;48.40;40.10;;;;;;;7.53;72.79;100493.08;108684;1278;23686;-80
2022/11/08 05:50:48;;;;;;;40.60;34.80;;;;;;;7.49;72.70;100495.08;108681;1278;22021;-79
2022/11/08 05:53:17;;;;;;;36.50;32.60;;;;;;;7.42;72.63;100498.87;108721;1278;21934;-80
2022/11/08 05:55:47;;;;;;;30.80;25.50;;;;;;;7.35;72.63;100499.55;108717;1278;22036;-81
2022/11/08 05:58:16;;;;;;;30.70;25.10;;;;;;;7.30;72.72;100503.65;108775;1277;21940;-83
2022/11/08 06:00:45;;;;;;;27.00;24.20;;;;;;;7.27;72.85;100505.42;109025;1274;21947;-81
2022/11/08 06:03:14;;;;;;;26.30;23.30;;;;;;;7.27;73.06;100505.44;108906;1265;23043;-80
2022/11/08 06:05:50;;;;;;;25.50;22.30;;;;;;;7.27;73.18;100507.34;108829;1266;21972;-79
2022/11/08 06:08:19;;;;;;;21.90;19.50;;;;;;;7.24;72.99;100508.77;108960;1275;22359;-79
2022/11/08 06:10:48;;;;;;;21.40;18.10;;;;;;;7.19;72.87;100509.41;108854;1270;21979;-79
2022/11/08 06:13:16;;;;;;;21.20;17.60;;;;;;;7.15;72.94;100510.03;108815;1274;21960;-82
2022/11/08 06:15:45;;;;;;;21.60;19.10;;;;;;;7.09;72.97;100509.46;109070;1274;21929;-82
2022/11/08 06:18:14;;;;;;;23.00;17.80;;;;;;;7.02;73.06;100513.75;108920;1271;22803;-82
2022/11/08 06:20:43;;;;;;;21.90;18.20;;;;;;;6.96;73.06;100514.05;109029;1271;22055;-82
2022/11/08 06:23:12;;;;;;;25.50;22.70;;;;;;;6.90;73.37;100514.15;108913;1275;23009;-81
2022/11/08 06:25:41;;;;;;;25.40;22.70;;;;;;;6.90;73.54;100510.52;108747;1275;23128;-81
2022/11/08 06:28:15;;;;;;;23.90;20.70;;;;;;;6.91;73.66;100512.23;108628;1277;23741;-80
2022/11/08 06:30:44;;;;;;;25.80;20.40;;;;;;;6.91;73.59;100515.36;108472;1281;21933;-81
2022/11/08 06:33:12;;;;;;;25.60;18.30;;;;;;;6.88;73.69;100521.30;108777;1277;21928;-81
2022/11/08 06:35:42;;;;;;;32.00;27.10;;;;;;;6.87;73.77;100524.42;108783;1278;23762;-81
2022/11/08 06:38:12;;;;;;;34.80;31.10;;;;;;;6.91;73.96;100529.38;108758;1268;23596;-82
2022/11/08 06:40:41;;;;;;;29.80;26.70;;;;;;;6.97;74.15;100531.50;108537;1277;23087;-84
2022/11/08 06:43:11;;;;;;;25.80;21.50;;;;;;;7.00;74.02;100530.39;108462;1266;23068;-79
2022/11/08 06:50:56;;;;;;;49.40;44.00;;;;;;;6.94;74.20;100526.89;109268;1266;22696;-81
2022/11/08 06:53:25;;;;;;;49.30;41.80;;;;;;;6.97;74.33;100526.30;109143;1272;23240;-81
2022/11/08 06:55:54;;;;;;;43.70;39.00;;;;;;;7.05;74.43;100528.39;108956;1272;21947;-81
2022/11/08 06:58:23;;;;;;;39.40;29.70;;;;;;;7.11;74.33;100531.55;109088;1275;21961;-82
2022/11/08 07:00:52;;;;;;;92.60;77.30;;;;;;;7.14;74.28;100529.77;108996;1263;21936;-82
2022/11/08 07:03:21;;;;;;;44.60;37.70;;;;;;;7.19;74.30;100530.35;108910;1272;21942;-81
2022/11/08 07:05:50;;;;;;;43.40;31.90;;;;;;;7.25;74.29;100526.42;108978;1271;23277;-82
2022/11/08 07:08:19;;;;;;;29.90;24.60;;;;;;;7.29;74.26;100529.27;108803;1275;23585;-81
2022/11/08 07:10:52;;;;;;;30.80;24.20;;;;;;;7.29;74.04;100531.35;108764;1277;21955;-81
2022/11/08 07:13:21;;;;;;;31.40;22.40;;;;;;;7.29;74.03;100533.45;108759;1277;22273;-81
2022/11/08 07:15:50;;;;;;;48.00;37.20;;;;;;;7.28;73.94;100534.66;108786;1276;22177;-82
2022/11/08 07:18:19;;;;;;;30.60;24.90;;;;;;;7.32;74.19;100532.14;108839;1276;22812;-82
2022/11/08 07:20:48;;;;;;;30.90;23.50;;;;;;;7.38;74.21;100530.63;109002;1274;23059;-82
2022/11/08 07:23:18;;;;;;;34.10;25.20;;;;;;;7.40;74.12;100528.89;109116;1275;21981;-81
2022/11/08 07:25:47;;;;;;;30.20;24.10;;;;;;;7.43;74.15;100531.39;108697;1280;21928;-82
2022/11/08 07:28:18;;;;;;;31.60;24.60;;;;;;;7.49;74.14;100535.09;108563;1281;21965;-80
2022/11/08 07:30:48;;;;;;;38.50;26.20;;;;;;;7.53;74.19;100536.89;108609;1279;21929;-80
2022/11/08 07:33:17;;;;;;;34.30;26.00;;;;;;;7.59;74.26;100535.88;108486;1280;22728;-84
2022/11/08 07:35:46;;;;;;;36.10;26.00;;;;;;;7.66;74.31;100538.67;108654;1280;22706;-80
2022/11/08 07:38:15;;;;;;;44.00;30.00;;;;;;;7.78;74.53;100537.88;108647;1278;22998;-85
2022/11/08 07:40:44;;;;;;;40.60;30.60;;;;;;;7.89;74.48;100538.33;108734;1278;21927;-84
2022/11/08 07:43:15;;;;;;;43.80;33.00;;;;;;;8.00;74.47;100538.59;108779;1276;23666;-85
2022/11/08 07:45:44;;;;;;;41.80;34.00;;;;;;;8.11;74.26;100542.14;109148;1275;21928;-86
2022/11/08 07:48:13;;;;;;;50.40;43.00;;;;;;;8.19;74.13;100544.02;108758;1277;21963;-88
2022/11/08 07:50:42;;;;;;;32.80;29.30;;;;;;;8.30;74.05;100543.76;108933;1281;21957;-87
2022/11/08 07:53:11;;;;;;;42.80;31.80;;;;;;;8.41;73.91;100541.60;108754;1280;22395;-87
2022/11/08 07:55:41;;;;;;;30.90;25.90;;;;;;;8.49;73.51;100541.20;108805;1281;21968;-87
2022/11/08 07:58:10;;;;;;;41.40;26.20;;;;;;;8.57;73.43;100542.02;108681;1277;22475;-84
2022/11/08 08:00:42;;;;;;;35.40;29.80;;;;;;;8.70;73.46;100547.23;108663;1281;24316;-84
2022/11/08 08:03:13;;;;;;;42.30;33.10;;;;;;;8.86;73.49;100546.47;108855;1274;22005;-85
2022/11/08 08:05:44;;;;;;;35.70;31.70;;;;;;;8.99;73.21;100546.78;108885;1276;21945;-86
2022/11/08 08:08:13;;;;;;;38.60;34.60;;;;;;;9.09;73.02;100544.25;109241;1275;24193;-88
2022/11/08 08:10:44;;;;;;;40.20;33.70;;;;;;;9.22;72.93;100542.32;109286;1275;22053;-87
2022/11/08 08:13:14;;;;;;;39.50;34.20;;;;;;;9.34;72.66;100539.88;109208;1275;22602;-88
2022/11/08 08:15:43;;;;;;;31.10;28.10;;;;;;;9.46;72.41;100540.91;109313;1275;21934;-87
2022/11/08 08:18:12;;;;;;;36.20;29.00;;;;;;;9.55;72.05;100537.34;109445;1276;21993;-86
2022/11/08 08:20:42;;;;;;;35.30;26.10;;;;;;;9.67;71.85;100537.83;109058;1280;22184;-86
2022/11/08 08:23:11;;;;;;;29.40;23.60;;;;;;;9.81;71.78;100540.35;108763;1279;22001;-85
2022/11/08 08:25:39;;;;;;;35.50;25.90;;;;;;;9.98;71.84;100537.91;108893;1281;21942;-86
2022/11/08 08:28:10;;;;;;;27.30;24.30;;;;;;;10.15;71.38;100534.74;109373;1280;21917;-86
2022/11/08 08:30:39;;;;;;;28.80;23.20;;;;;;;10.25;70.77;100539.45;109495;1282;21963;-86
2022/11/08 08:33:15;;;;;;;25.90;22.00;;;;;;;10.35;70.56;100539.49;109487;1282;21919;-87
2022/11/08 08:36:00;;;;;;;35.30;25.90;;;;;;;10.51;70.72;100538.60;109248;1281;21912;-83
2022/11/08 08:38:32;;;;;;;36.90;25.70;;;;;;;10.69;70.44;100544.08;108912;1277;23062;-87
2022/11/08 08:41:02;;;;;;;27.60;23.50;;;;;;;10.83;69.77;100541.66;109019;1277;21969;-86
2022/11/08 08:43:31;;;;;;;33.00;25.90;;;;;;;10.88;69.18;100535.42;109298;1276;21922;-86
2022/11/08 08:46:03;;;;;;;27.40;24.70;;;;;;;10.95;68.67;100535.86;109500;1276;21963;-85
2022/11/08 08:48:34;;;;;;;31.80;26.40;;;;;;;11.00;68.47;100535.84;109520;1277;22671;-85
2022/11/08 08:51:06;;;;;;;31.80;28.30;;;;;;;11.06;68.43;100535.98;109588;1274;22403;-86
2022/11/08 08:53:38;;;;;;;30.90;27.80;;;;;;;11.17;68.30;100533.30;109623;1277;23606;-85
2022/11/08 08:56:09;;;;;;;29.40;26.30;;;;;;;11.30;67.99;100535.25;109626;1276;21923;-86
2022/11/08 08:58:38;;;;;;;32.50;27.40;;;;;;;11.39;67.92;100530.37;109642;1276;21948;-85
2022/11/08 09:01:08;;;;;;;27.40;21.70;;;;;;;11.50;67.52;100528.40;109663;1274;21935;-86
2022/11/08 09:04:03;;;;;;;26.40;23.10;;;;;;;11.52;67.16;100525.88;109773;1276;21948;-86
2022/11/08 09:06:33;;;;;;;35.40;27.00;;;;;;;11.54;66.77;100523.54;109518;1274;21956;-86
2022/11/08 09:09:03;;;;;;;29.40;23.00;;;;;;;11.57;66.89;100527.77;109499;1274;21910;-84
2022/11/08 09:11:32;;;;;;;20.10;18.00;;;;;;;11.63;66.78;100528.75;109289;1281;22674;-84
2022/11/08 09:14:04;;;;;;;23.20;17.80;;;;;;;11.67;66.53;100533.46;109251;1282;21936;-86
2022/11/08 09:16:35;;;;;;;21.10;17.80;;;;;;;11.77;66.65;100535.00;109276;1274;21954;-86
2022/11/08 09:19:04;;;;;;;17.60;15.70;;;;;;;11.80;66.22;100536.62;109106;1282;21949;-86
2022/11/08 09:21:33;;;;;;;23.50;16.50;;;;;;;11.85;66.28;100532.59;108980;1281;21955;-84
2022/11/08 09:24:03;;;;;;;21.80;15.70;;;;;;;11.95;66.41;100533.95;108817;1286;21978;-85
2022/11/08 09:26:32;;;;;;;19.10;16.50;;;;;;;12.13;66.63;100533.23;108965;1287;22825;-85
2022/11/08 09:29:01;;;;;;;20.50;17.10;;;;;;;12.27;66.55;100530.92;108988;1283;22039;-86
2022/11/08 09:31:30;;;;;;;19.30;15.90;;;;;;;12.43;66.28;100531.09;109090;1278;21984;-85
2022/11/08 09:34:00;;;;;;;17.20;15.30;;;;;;;12.59;65.84;100537.23;109013;1281;21964;-85
2022/11/08 09:36:32;;;;;;;18.80;15.80;;;;;;;12.68;65.55;100539.61;109283;1282;21931;-84
2022/11/08 09:39:02;;;;;;;22.90;16.10;;;;;;;12.78;64.98;100536.56;109105;1279;22114;-85
2022/11/08 09:42:08;;;;;;;23.50;16.20;;;;;;;12.90;64.97;100538.13;109226;1278;21900;-85
2022/11/08 09:45:19;;;;;;;19.50;14.40;;;;;;;13.03;64.63;100532.85;109918;1276;21963;-86
2022/11/08 09:47:58;;;;;;;18.00;14.50;;;;;;;13.19;64.20;100530.73;109548;1279;21977;-86
2022/11/08 09:50:46;;;;;;;18.40;14.70;;;;;;;13.39;64.19;100529.48;109469;1286;21772;-86
2022/11/08 09:53:30;;;;;;;22.40;17.70;;;;;;;13.63;64.05;100524.69;109116;1269;23857;-79
2022/11/08 09:56:14;;;;;;;22.70;18.60;;;;;;;13.85;63.22;100517.66;108745;1287;21962;-85
2022/11/08 09:59:01;;;;;;;27.00;19.60;;;;;;;14.07;63.03;100516.42;108379;1287;22788;-84
2022/11/08 10:01:34;;;;;;;20.10;16.60;;;;;;;14.24;62.21;100518.56;108430;1287;21964;-86
2022/11/08 10:04:21;;;;;;;18.00;14.30;;;;;;;14.37;61.67;100517.03;108768;1285;23605;-84
2022/11/08 10:07:40;;;;;;;17.10;14.60;;;;;;;14.40;60.47;100515.83;108790;1285;21951;-87
2022/11/08 10:10:36;;;;;;;25.40;19.90;;;;;;;14.49;61.12;100514.52;109773;1276;22370;-88
2022/11/08 10:13:19;;;;;;;20.10;14.90;;;;;;;14.62;60.56;100513.84;109478;1285;21926;-87
2022/11/08 10:16:04;;;;;;;20.80;14.70;;;;;;;14.76;60.63;100511.17;109439;1285;22063;-85
2022/11/08 10:18:59;;;;;;;19.80;14.90;;;;;;;15.00;60.84;100508.67;108968;1285;21943;-87
2022/11/08 10:21:48;;;;;;;19.70;13.80;;;;;;;15.17;59.92;100508.84;108632;1282;21947;-85
2022/11/08 10:24:26;;;;;;;17.30;12.50;;;;;;;15.27;59.06;100509.17;108561;1280;23877;-83
2022/11/08 10:26:58;;;;;;;17.90;14.60;;;;;;;15.39;58.93;100507.29;108653;1277;22084;-80
2022/11/08 10:29:42;;;;;;;19.50;13.80;;;;;;;15.61;58.96;100509.59;108133;1282;22778;-81
2022/11/08 10:32:20;;;;;;;23.30;16.10;;;;;;;15.75;58.47;100502.12;108383;1279;22109;-81
2022/11/08 10:35:31;;;;;;;17.60;14.30;;;;;;;15.90;57.96;100496.90;108619;1267;21958;-82
2022/11/08 10:38:02;;;;;;;17.70;15.40;;;;;;;16.25;59.12;100489.25;108690;1276;22006;-80
2022/11/08 10:40:46;;;;;;;19.40;14.40;;;;;;;16.63;58.49;100485.02;108429;1276;23650;-79
2022/11/08 10:43:27;;;;;;;22.10;14.20;;;;;;;16.94;58.27;100485.47;108558;1281;21962;-81
2022/11/08 10:45:56;;;;;;;15.90;11.40;;;;;;;17.22;56.37;100483.15;108485;1274;22302;-81
2022/11/08 10:48:27;;;;;;;16.00;12.10;;;;;;;17.17;54.58;100477.00;109000;1271;22422;-82
2022/11/08 10:50:56;;;;;;;17.80;11.00;;;;;;;17.07;54.46;100468.47;109020;1272;23122;-82
2022/11/08 10:53:28;;;;;;;15.40;11.00;;;;;;;17.10;54.53;100463.89;108967;1266;24420;-80
2022/11/08 10:56:05;;;;;;;14.70;11.00;;;;;;;17.15;54.74;100459.15;108822;1270;24002;-82
2022/11/08 10:58:42;;;;;;;14.60;7.70;;;;;;;17.16;53.73;100456.80;108964;1274;23619;-82
2022/11/08 11:01:23;;;;;;;10.90;6.60;;;;;;;17.04;53.35;100460.39;108698;1277;22400;-83
2022/11/08 11:03:52;;;;;;;8.30;6.70;;;;;;;16.90;53.43;100457.55;108912;1276;23750;-81
2022/11/08 11:06:31;;;;;;;8.40;6.60;;;;;;;16.80;53.30;100454.47;108536;1277;23698;-82
2022/11/08 11:09:17;;;;;;;8.40;6.30;;;;;;;16.69;53.33;100447.27;108311;1278;21942;-81
2022/11/08 11:11:57;;;;;;;9.70;6.70;;;;;;;16.57;53.67;100445.34;108256;1283;21973;-82
2022/11/08 11:14:26;;;;;;;9.80;7.70;;;;;;;16.54;54.03;100444.67;108249;1281;23041;-82
2022/11/08 11:17:15;;;;;;;10.30;8.20;;;;;;;16.46;53.82;100440.77;108646;1281;22336;-82
2022/11/08 11:19:56;;;;;;;14.90;12.10;;;;;;;16.26;53.50;100442.12;108840;1267;22236;-80
2022/11/08 11:22:34;;;;;;;12.70;9.70;;;;;;;16.01;53.74;100445.57;108789;1279;21965;-82
2022/11/08 11:25:16;;;;;;;10.00;7.50;;;;;;;15.80;54.16;100440.64;109011;1270;22415;-85
2022/11/08 11:27:57;;;;;;;10.80;5.90;;;;;;;15.67;54.60;100444.15;109536;1275;21947;-88
2022/11/08 11:30:29;;;;;;;10.20;6.60;;;;;;;15.53;54.93;100446.36;109096;1274;21938;-86
2022/11/08 11:33:22;;;;;;;8.20;6.50;;;;;;;15.41;55.15;100445.09;108976;1270;21929;-84
2022/11/08 11:36:13;;;;;;;10.70;6.00;;;;;;;15.30;55.44;100443.10;108706;1280;21955;-80
2022/11/08 11:39:03;;;;;;;9.10;6.10;;;;;;;15.25;55.80;100442.85;108684;1271;23576;-80
2022/11/08 11:41:55;;;;;;;15.00;5.40;;;;;;;15.20;56.04;100444.17;108737;1275;21921;-81
2022/11/08 11:44:40;;;;;;;10.60;7.20;;;;;;;15.13;55.90;100442.11;108666;1277;21962;-80
2022/11/08 11:47:23;;;;;;;8.20;7.30;;;;;;;15.06;56.02;100444.23;107966;1279;1026985;-80
2022/11/08 11:49:58;;;;;;;14.20;10.40;;;;;;;15.06;56.15;100443.70;108641;1277;21943;-79
2022/11/08 11:52:26;;;;;;;19.60;13.80;;;;;;;15.06;56.28;100443.33;108679;1280;23141;-81
2022/11/08 11:54:55;;;;;;;9.50;7.00;;;;;;;15.09;56.43;100441.98;108666;1277;21949;-79
2022/11/08 11:57:52;;;;;;;9.70;6.10;;;;;;;15.10;56.29;100441.05;108174;1277;23857;-80
2022/11/08 12:00:21;;;;;;;11.20;6.20;;;;;;;15.05;56.48;100445.53;108610;1277;22168;-80
2022/11/08 12:03:20;;;;;;;10.00;6.40;;;;;;;15.02;56.46;100441.80;108227;1282;22382;-80